Insula Oya 2 — FUKI — position and weather

sailwx.info

Track history (hours):
 
Tides and Currents Weather Stations Pressure Air Temp Water Temp Dewpoint Dewpoint Depression Visibility Wind Speed Wind Dir Waves Ship Positions

Insula Oya 2

Last reported at 2016-Sep-23 09:33 UTC. Time now 2016-Sep-29 17:03 UTC.
Position N 47°44' W 003°22'.

Length 50 m; draft 2.5 m.

Type: Passenger vessel. MMSI: 227004900.

Date/timePositionNaut miles runAvg speedWind from/ knotsBaromVisibWave heightAir tempDewpointWater temp
2016-Sep-23 09:33N 47°44' W 003°22'0 0.0
2016-Sep-23 06:33N 47°44' W 003°22'0 0.0
2016-Sep-23 04:33N 47°44' W 003°22'0 0.0
2016-Sep-23 03:33N 47°44' W 003°22'0 0.0
2016-Sep-23 02:33N 47°44' W 003°22'0 0.0
2016-Sep-23 01:33N 47°44' W 003°22'0 0.0
2016-Sep-23 00:33N 47°44' W 003°22'0 0.0
2016-Sep-22 23:33N 47°44' W 003°22'0 0.0
2016-Sep-22 20:33N 47°44' W 003°22'0 0.0
2016-Sep-22 12:32N 47°44' W 003°22'0 0.0
2016-Sep-22 04:32N 47°44' W 003°22'0 0.0
2016-Sep-22 03:32N 47°44' W 003°22'0 0.0
2016-Sep-22 00:32N 47°44' W 003°22'0 0.0
2016-Sep-21 23:32N 47°44' W 003°22'0 0.0
2016-Sep-21 22:32N 47°44' W 003°22'0 0.0
2016-Sep-21 19:32N 47°44' W 003°22'0 0.0
2016-Sep-21 16:32N 47°44' W 003°22'0 0.0
2016-Sep-21 09:32N 47°44' W 003°22'0 0.0
2016-Sep-21 08:32N 47°44' W 003°22'0 0.0
2016-Sep-21 05:32N 47°44' W 003°22'0 0.0
2016-Sep-21 03:32N 47°44' W 003°22'0 0.0
2016-Sep-21 02:32N 47°44' W 003°22'0 0.0
2016-Sep-20 17:32N 47°44' W 003°22'0 0.0
2016-Sep-20 14:32N 47°44' W 003°22'0 0.0
2016-Sep-20 13:29N 47°44' W 003°22'0 0.0
2016-Sep-20 10:32N 47°44' W 003°22'0 0.0
2016-Sep-20 08:32N 47°44' W 003°22'0 0.0
2016-Sep-20 07:32N 47°44' W 003°22'0 0.0
2016-Sep-20 06:32N 47°44' W 003°22'0 0.0
2016-Sep-20 02:32N 47°44' W 003°22'0 0.0
2016-Sep-19 23:32N 47°44' W 003°22'0 0.0
2016-Sep-19 19:32N 47°44' W 003°22'0 0.0
2016-Sep-19 18:32N 47°44' W 003°22'0 0.0
2016-Sep-19 16:29N 47°44' W 003°22'0 0.0
2016-Sep-19 14:32N 47°44' W 003°22'0 0.0
2016-Sep-19 13:33N 47°44' W 003°22'0 0.0
2016-Sep-19 12:33N 47°44' W 003°22'0 0.0
2016-Sep-19 11:33N 47°44' W 003°22'13 6.5
2016-Sep-19 09:33N 47°32' W 003°15'2914.3
2016-Sep-19 07:33N 47°09' W 002°49'1813.3
2016-Sep-19 06:12N 46°55' W 002°33'13 0.3
2016-Sep-17 05:28N 46°49' W 002°16'7 7.8
2016-Sep-17 04:33N 46°54' W 002°08'0 0.0
2016-Sep-16 17:22N 46°54' W 002°08'0 0.0
2016-Sep-16 15:22N 46°54' W 002°08'0 0.0
2016-Sep-16 03:31N 46°54' W 002°08'0 0.0
2016-Sep-16 02:31N 46°54' W 002°08'0 0.0
2016-Sep-16 00:31N 46°54' W 002°08'0 0.0
2016-Sep-15 22:31N 46°54' W 002°08'0 0.0
2016-Sep-15 21:25N 46°54' W 002°08'0 0.0
2016-Sep-15 20:19N 46°54' W 002°08'0 0.0
2016-Sep-15 18:22N 46°54' W 002°08'12 0.8
2016-Sep-15 04:25N 46°45' W 002°20'1112.9
2016-Sep-15 03:33N 46°54' W 002°09'0 0.2
2016-Sep-15 01:27N 46°54' W 002°08'0 0.0
2016-Sep-14 22:33N 46°54' W 002°08'0 0.0
2016-Sep-14 21:33N 46°54' W 002°08'0 0.0
2016-Sep-14 17:33N 46°54' W 002°08'0 0.0
2016-Sep-14 07:33N 46°54' W 002°08'0 0.0
2016-Sep-14 06:33N 46°54' W 002°08'0 0.0
2016-Sep-14 03:30N 46°54' W 002°08'0 0.0
2016-Sep-13 22:30N 46°54' W 002°08'0 0.0
2016-Sep-13 20:30N 46°54' W 002°08'0 0.0
2016-Sep-13 18:30N 46°54' W 002°08'4 0.6
2016-Sep-13 11:30N 46°52' W 002°13'  
Track history (hours):
 
Tides and Currents Weather Stations Pressure Air Temp Water Temp Dewpoint Dewpoint Depression Visibility Wind Speed Wind Dir Waves Ship Positions

Insula Oya 2

Last reported at 2016-Sep-23 09:33 UTC. Time now 2016-Sep-29 17:03 UTC.
Position N 47°44' W 003°22'.

Length 50 m; draft 2.5 m.

Type: Passenger vessel. MMSI: 227004900.

Date/timePositionNaut miles runAvg speedWind from/ knotsBaromVisibWave heightAir tempDewpointWater temp
2016-Sep-23 09:33N 47°44' W 003°22'0 0.0
2016-Sep-23 06:33N 47°44' W 003°22'0 0.0
2016-Sep-23 04:33N 47°44' W 003°22'0 0.0
2016-Sep-23 03:33N 47°44' W 003°22'0 0.0
2016-Sep-23 02:33N 47°44' W 003°22'0 0.0
2016-Sep-23 01:33N 47°44' W 003°22'0 0.0
2016-Sep-23 00:33N 47°44' W 003°22'0 0.0
2016-Sep-22 23:33N 47°44' W 003°22'0 0.0
2016-Sep-22 20:33N 47°44' W 003°22'0 0.0
2016-Sep-22 12:32N 47°44' W 003°22'0 0.0
2016-Sep-22 04:32N 47°44' W 003°22'0 0.0
2016-Sep-22 03:32N 47°44' W 003°22'0 0.0
2016-Sep-22 00:32N 47°44' W 003°22'0 0.0
2016-Sep-21 23:32N 47°44' W 003°22'0 0.0
2016-Sep-21 22:32N 47°44' W 003°22'0 0.0
2016-Sep-21 19:32N 47°44' W 003°22'0 0.0
2016-Sep-21 16:32N 47°44' W 003°22'0 0.0
2016-Sep-21 09:32N 47°44' W 003°22'0 0.0
2016-Sep-21 08:32N 47°44' W 003°22'0 0.0
2016-Sep-21 05:32N 47°44' W 003°22'0 0.0
2016-Sep-21 03:32N 47°44' W 003°22'0 0.0
2016-Sep-21 02:32N 47°44' W 003°22'0 0.0
2016-Sep-20 17:32N 47°44' W 003°22'0 0.0
2016-Sep-20 14:32N 47°44' W 003°22'0 0.0
2016-Sep-20 13:29N 47°44' W 003°22'0 0.0
2016-Sep-20 10:32N 47°44' W 003°22'0 0.0
2016-Sep-20 08:32N 47°44' W 003°22'0 0.0
2016-Sep-20 07:32N 47°44' W 003°22'0 0.0
2016-Sep-20 06:32N 47°44' W 003°22'0 0.0
2016-Sep-20 02:32N 47°44' W 003°22'0 0.0
2016-Sep-19 23:32N 47°44' W 003°22'0 0.0
2016-Sep-19 19:32N 47°44' W 003°22'0 0.0
2016-Sep-19 18:32N 47°44' W 003°22'0 0.0
2016-Sep-19 16:29N 47°44' W 003°22'0 0.0
2016-Sep-19 14:32N 47°44' W 003°22'0 0.0
2016-Sep-19 13:33N 47°44' W 003°22'0 0.0
2016-Sep-19 12:33N 47°44' W 003°22'0 0.0
2016-Sep-19 11:33N 47°44' W 003°22'13 6.5
2016-Sep-19 09:33N 47°32' W 003°15'2914.3
2016-Sep-19 07:33N 47°09' W 002°49'1813.3
2016-Sep-19 06:12N 46°55' W 002°33'13 0.3
2016-Sep-17 05:28N 46°49' W 002°16'7 7.8
2016-Sep-17 04:33N 46°54' W 002°08'0 0.0
2016-Sep-16 17:22N 46°54' W 002°08'0 0.0
2016-Sep-16 15:22N 46°54' W 002°08'0 0.0
2016-Sep-16 03:31N 46°54' W 002°08'0 0.0
2016-Sep-16 02:31N 46°54' W 002°08'0 0.0
2016-Sep-16 00:31N 46°54' W 002°08'0 0.0
2016-Sep-15 22:31N 46°54' W 002°08'0 0.0
2016-Sep-15 21:25N 46°54' W 002°08'0 0.0
2016-Sep-15 20:19N 46°54' W 002°08'0 0.0
2016-Sep-15 18:22N 46°54' W 002°08'12 0.8
2016-Sep-15 04:25N 46°45' W 002°20'1112.9
2016-Sep-15 03:33N 46°54' W 002°09'0 0.2
2016-Sep-15 01:27N 46°54' W 002°08'0 0.0
2016-Sep-14 22:33N 46°54' W 002°08'0 0.0
2016-Sep-14 21:33N 46°54' W 002°08'0 0.0
2016-Sep-14 17:33N 46°54' W 002°08'0 0.0
2016-Sep-14 07:33N 46°54' W 002°08'0 0.0
2016-Sep-14 06:33N 46°54' W 002°08'0 0.0
2016-Sep-14 03:30N 46°54' W 002°08'0 0.0
2016-Sep-13 22:30N 46°54' W 002°08'0 0.0
2016-Sep-13 20:30N 46°54' W 002°08'0 0.0
2016-Sep-13 18:30N 46°54' W 002°08'4 0.6
2016-Sep-13 11:30N 46°52' W 002°13'  

Dump ship's entire track history